Time,TemperatureF,DewpointF,PressureIn,WindDirection,WindDirectionDegrees,WindSpeedMPH,WindSpeedGustMPH,Humidity,HourlyPrecipIn,Conditions,Clouds,dailyrainin,SoftwareType,DateUTC
2014-01-08 00:05:00,12.7,2.5,30.32,WSW,247,2.2,-999.0,63,-99.99,,,0.00,Acu-Link.com,2014-01-08 05:05:00,
2014-01-08 00:20:00,12.7,2.5,30.32,SSE,157,2.2,-999.0,63,-99.99,,,0.00,Acu-Link.com,2014-01-08 05:20:00,
2014-01-08 00:35:00,12.4,2.6,30.32,SW,225,0.0,-999.0,64,-99.99,,,0.00,Acu-Link.com,2014-01-08 05:35:00,
2014-01-08 00:50:00,11.1,1.7,30.32,West,270,0.0,-999.0,65,-99.99,,,0.00,Acu-Link.com,2014-01-08 05:50:00,
2014-01-08 01:05:00,11.3,2.2,30.32,SSW,202,0.0,-999.0,66,-99.99,,,0.00,Acu-Link.com,2014-01-08 06:05:00,
2014-01-08 01:20:00,10.9,1.8,30.32,NNE,22,0.0,-999.0,66,-99.99,,,0.00,Acu-Link.com,2014-01-08 06:20:00,
2014-01-08 01:35:00,10.8,2.0,30.33,SW,225,0.0,-999.0,67,-99.99,,,0.00,Acu-Link.com,2014-01-08 06:35:00,
2014-01-08 01:50:00,10.4,2.3,30.33,SW,225,1.7,-999.0,69,-99.99,,,0.00,Acu-Link.com,2014-01-08 06:50:00,
2014-01-08 02:05:00,10.9,3.1,30.34,South,180,0.0,-999.0,70,-99.99,,,0.00,Acu-Link.com,2014-01-08 07:05:00,
2014-01-08 02:21:00,10.0,2.2,30.35,North,0,0.0,-999.0,70,-99.99,,,0.00,Acu-Link.com,2014-01-08 07:21:00,
2014-01-08 02:36:00,10.9,3.4,30.35,SW,225,0.0,-999.0,71,-99.99,,,0.00,Acu-Link.com,2014-01-08 07:36:00,
2014-01-08 02:51:00,11.1,3.9,30.36,SW,225,2.2,-999.0,72,-99.99,,,0.00,Acu-Link.com,2014-01-08 07:51:00,
2014-01-08 03:06:00,11.1,3.9,30.36,SW,225,0.0,-999.0,72,-99.99,,,0.00,Acu-Link.com,2014-01-08 08:06:00,
2014-01-08 03:21:00,11.3,4.4,30.36,SSE,157,0.0,-999.0,73,-99.99,,,0.00,Acu-Link.com,2014-01-08 08:21:00,
2014-01-08 03:36:00,11.5,4.6,30.36,WSW,247,1.7,-999.0,73,-99.99,,,0.00,Acu-Link.com,2014-01-08 08:36:00,
2014-01-08 03:51:00,11.7,4.4,30.36,SSW,202,1.7,-999.0,72,-99.99,,,0.00,Acu-Link.com,2014-01-08 08:51:00,
2014-01-08 04:06:00,11.8,4.2,30.36,SSW,202,2.7,-999.0,71,-99.99,,,0.00,Acu-Link.com,2014-01-08 09:06:00,
2014-01-08 04:21:00,12.6,3.8,30.36,SSW,202,2.2,-999.0,67,-99.99,,,0.00,Acu-Link.com,2014-01-08 09:21:00,
2014-01-08 04:37:00,12.7,3.5,30.36,West,270,3.7,-999.0,66,-99.99,,,0.00,Acu-Link.com,2014-01-08 09:37:00,
2014-01-08 04:52:00,12.2,3.0,30.36,NNW,337,0.0,-999.0,66,-99.99,,,0.00,Acu-Link.com,2014-01-08 09:52:00,
2014-01-08 05:07:00,11.3,2.8,30.37,NNW,337,0.0,-999.0,68,-99.99,,,0.00,Acu-Link.com,2014-01-08 10:07:00,
2014-01-08 05:22:00,10.4,2.3,30.37,West,270,1.1,-999.0,69,-99.99,,,0.00,Acu-Link.com,2014-01-08 10:22:00,
2014-01-08 05:37:00,10.0,2.8,30.37,West,270,0.0,-999.0,72,-99.99,,,0.00,Acu-Link.com,2014-01-08 10:37:00,
2014-01-08 05:52:00,9.7,2.8,30.38,NNW,337,1.7,-999.0,73,-99.99,,,0.00,Acu-Link.com,2014-01-08 10:52:00,
2014-01-08 06:07:00,9.1,2.2,30.38,North,0,0.0,-999.0,73,-99.99,,,0.00,Acu-Link.com,2014-01-08 11:07:00,
2014-01-08 06:22:00,8.8,2.2,30.38,WNW,292,0.0,-999.0,74,-99.99,,,0.00,Acu-Link.com,2014-01-08 11:22:00,
2014-01-08 06:37:00,8.8,2.5,30.38,NNE,22,1.7,-999.0,75,-99.99,,,0.00,Acu-Link.com,2014-01-08 11:37:00,
2014-01-08 06:53:00,8.2,2.2,30.38,NNE,22,0.0,-999.0,76,-99.99,,,0.00,Acu-Link.com,2014-01-08 11:53:00,
2014-01-08 07:08:00,8.1,2.1,30.38,NNE,22,0.0,-999.0,76,-99.99,,,0.00,Acu-Link.com,2014-01-08 12:08:00,
2014-01-08 07:23:00,7.9,2.2,30.39,NNW,337,0.0,-999.0,77,-99.99,,,0.00,Acu-Link.com,2014-01-08 12:23:00,
2014-01-08 07:38:00,7.9,2.5,30.39,SE,135,0.0,-999.0,78,-99.99,,,0.00,Acu-Link.com,2014-01-08 12:38:00,
2014-01-08 07:53:00,7.9,2.5,30.40,NNE,22,0.0,-999.0,78,-99.99,,,0.00,Acu-Link.com,2014-01-08 12:53:00,
2014-01-08 08:08:00,9.0,3.8,30.41,NNE,22,1.7,-999.0,79,-99.99,,,0.00,Acu-Link.com,2014-01-08 13:08:00,
2014-01-08 08:23:00,13.5,8.5,30.42,SSE,157,1.7,-999.0,80,-99.99,,,0.00,Acu-Link.com,2014-01-08 13:23:00,
2014-01-08 08:38:00,15.1,8.9,30.42,SSW,202,0.0,-999.0,76,-99.99,,,0.00,Acu-Link.com,2014-01-08 13:38:00,
2014-01-08 08:53:00,17.8,10.3,30.42,North,0,2.2,-999.0,72,-99.99,,,0.00,Acu-Link.com,2014-01-08 13:53:00,
2014-01-08 09:09:00,19.2,10.1,30.42,NNE,22,2.2,-999.0,67,-99.99,,,0.00,Acu-Link.com,2014-01-08 14:09:00,
2014-01-08 09:24:00,20.8,10.2,30.42,NW,315,2.7,-999.0,63,-99.99,,,0.00,Acu-Link.com,2014-01-08 14:24:00,
2014-01-08 09:39:00,21.6,9.1,30.43,SE,135,1.1,-999.0,58,-99.99,,,0.00,Acu-Link.com,2014-01-08 14:39:00,
2014-01-08 09:54:00,23.0,9.3,30.44,WSW,247,2.7,-999.0,55,-99.99,,,0.00,Acu-Link.com,2014-01-08 14:54:00,
2014-01-08 10:09:00,25.2,10.9,30.45,NE,45,1.7,-999.0,54,-99.99,,,0.00,Acu-Link.com,2014-01-08 15:09:00,
2014-01-08 10:24:00,25.0,9.9,30.44,WNW,292,2.7,-999.0,52,-99.99,,,0.00,Acu-Link.com,2014-01-08 15:24:00,
2014-01-08 10:39:00,27.0,11.3,30.44,South,180,1.1,-999.0,51,-99.99,,,0.00,Acu-Link.com,2014-01-08 15:39:00,
2014-01-08 10:54:00,28.9,11.7,30.43,East,90,1.7,-999.0,48,-99.99,,,0.00,Acu-Link.com,2014-01-08 15:54:00,
2014-01-08 11:09:00,29.1,11.4,30.43,SE,135,2.7,-999.0,47,-99.99,,,0.00,Acu-Link.com,2014-01-08 16:09:00,
2014-01-08 11:24:00,29.7,11.5,30.42,NE,45,3.2,-999.0,46,-99.99,,,0.00,Acu-Link.com,2014-01-08 16:24:00,
2014-01-08 11:40:00,31.5,13.1,30.40,SW,225,1.7,-999.0,46,-99.99,,,0.00,Acu-Link.com,2014-01-08 16:40:00,
2014-01-08 11:55:00,30.6,12.3,30.40,WSW,247,3.7,-999.0,46,-99.99,,,0.00,Acu-Link.com,2014-01-08 16:55:00,
2014-01-08 12:10:00,31.6,12.7,30.38,East,90,2.7,-999.0,45,-99.99,,,0.00,Acu-Link.com,2014-01-08 17:10:00,
2014-01-08 12:25:00,30.9,12.1,30.37,South,180,2.7,-999.0,45,-99.99,,,0.00,Acu-Link.com,2014-01-08 17:25:00,
2014-01-08 12:40:00,32.5,13.5,30.35,ESE,112,3.2,-999.0,45,-99.99,,,0.00,Acu-Link.com,2014-01-08 17:40:00,
2014-01-08 12:55:00,33.8,14.7,30.34,NNW,337,1.7,-999.0,45,-99.99,,,0.00,Acu-Link.com,2014-01-08 17:55:00,
2014-01-08 13:10:00,32.7,13.2,30.33,South,180,2.7,-999.0,44,-99.99,,,0.00,Acu-Link.com,2014-01-08 18:10:00,
2014-01-08 13:25:00,33.1,13.1,30.34,South,180,1.1,-999.0,43,-99.99,,,0.00,Acu-Link.com,2014-01-08 18:25:00,
2014-01-08 13:40:00,33.8,14.2,30.34,South,180,2.7,-999.0,44,-99.99,,,0.00,Acu-Link.com,2014-01-08 18:40:00,
2014-01-08 13:56:00,33.3,14.3,30.34,WSW,247,3.2,-999.0,45,-99.99,,,0.00,Acu-Link.com,2014-01-08 18:56:00,
2014-01-08 14:11:00,34.2,15.1,30.32,South,180,2.2,-999.0,45,-99.99,,,0.00,Acu-Link.com,2014-01-08 19:11:00,
2014-01-08 14:26:00,35.1,15.4,30.32,South,180,3.7,-999.0,44,-99.99,,,0.00,Acu-Link.com,2014-01-08 19:26:00,
2014-01-08 14:41:00,37.0,16.1,30.32,SE,135,0.0,-999.0,42,-99.99,,,0.00,Acu-Link.com,2014-01-08 19:41:00,
2014-01-08 14:56:00,36.0,14.6,30.32,SW,225,3.2,-999.0,41,-99.99,,,0.00,Acu-Link.com,2014-01-08 19:56:00,
2014-01-08 15:11:00,37.0,15.5,30.30,NE,45,0.0,-999.0,41,-99.99,,,0.00,Acu-Link.com,2014-01-08 20:11:00,
2014-01-08 15:26:00,39.0,16.8,30.31,SE,135,1.1,-999.0,40,-99.99,,,0.00,Acu-Link.com,2014-01-08 20:26:00,
2014-01-08 15:41:00,37.9,15.8,30.31,WNW,292,0.0,-999.0,40,-99.99,,,0.00,Acu-Link.com,2014-01-08 20:41:00,
2014-01-08 15:56:00,37.4,15.9,30.31,SW,225,0.0,-999.0,41,-99.99,,,0.00,Acu-Link.com,2014-01-08 20:56:00,
2014-01-08 16:12:00,36.5,16.2,30.31,South,180,0.0,-999.0,43,-99.99,,,0.00,Acu-Link.com,2014-01-08 21:12:00,
2014-01-08 16:27:00,36.0,16.2,30.31,SW,225,1.7,-999.0,44,-99.99,,,0.00,Acu-Link.com,2014-01-08 21:27:00,
2014-01-08 16:42:00,35.2,16.0,30.30,SSW,202,2.2,-999.0,45,-99.99,,,0.00,Acu-Link.com,2014-01-08 21:42:00,
2014-01-08 16:57:00,34.9,16.2,30.30,SW,225,0.0,-999.0,46,-99.99,,,0.00,Acu-Link.com,2014-01-08 21:57:00,
2014-01-08 17:12:00,34.2,16.1,30.30,SSE,157,0.0,-999.0,47,-99.99,,,0.00,Acu-Link.com,2014-01-08 22:12:00,
2014-01-08 17:27:00,33.6,15.5,30.30,SW,225,1.1,-999.0,47,-99.99,,,0.00,Acu-Link.com,2014-01-08 22:27:00,
2014-01-08 17:42:00,33.1,16.0,30.30,SSW,202,0.0,-999.0,49,-99.99,,,0.00,Acu-Link.com,2014-01-08 22:42:00,
2014-01-08 17:57:00,32.0,15.9,30.29,West,270,0.0,-999.0,51,-99.99,,,0.00,Acu-Link.com,2014-01-08 22:57:00,
2014-01-08 18:12:00,30.4,16.2,30.30,North,0,0.0,-999.0,55,-99.99,,,0.00,Acu-Link.com,2014-01-08 23:12:00,
2014-01-08 18:28:00,29.7,15.9,30.30,NNE,22,0.0,-999.0,56,-99.99,,,0.00,Acu-Link.com,2014-01-08 23:28:00,
2014-01-08 18:43:00,29.1,16.2,30.30,NNE,22,0.0,-999.0,58,-99.99,,,0.00,Acu-Link.com,2014-01-08 23:43:00,
2014-01-08 18:58:00,28.2,16.1,30.30,North,0,0.0,-999.0,60,-99.99,,,0.00,Acu-Link.com,2014-01-08 23:58:00,
2014-01-08 19:13:00,27.7,16.8,30.30,NW,315,0.0,-999.0,63,-99.99,,,0.00,Acu-Link.com,2014-01-09 00:13:00,
2014-01-08 19:28:00,27.3,16.8,30.31,NNW,337,0.0,-999.0,64,-99.99,,,0.00,Acu-Link.com,2014-01-09 00:28:00,
2014-01-08 19:43:00,27.0,16.8,30.31,NW,315,0.0,-999.0,65,-99.99,,,0.00,Acu-Link.com,2014-01-09 00:43:00,
2014-01-08 19:58:00,26.8,17.0,30.31,North,0,0.0,-999.0,66,-99.99,,,0.00,Acu-Link.com,2014-01-09 00:58:00,
2014-01-08 20:13:00,26.6,17.1,30.31,NNW,337,0.0,-999.0,67,-99.99,,,0.00,Acu-Link.com,2014-01-09 01:13:00,
2014-01-08 20:28:00,26.6,17.1,30.31,WNW,292,0.0,-999.0,67,-99.99,,,0.00,Acu-Link.com,2014-01-09 01:28:00,
2014-01-08 20:44:00,26.4,17.3,30.31,North,0,0.0,-999.0,68,-99.99,,,0.00,Acu-Link.com,2014-01-09 01:44:00,
2014-01-08 20:59:00,26.4,18.0,30.31,NW,315,0.0,-999.0,70,-99.99,,,0.00,Acu-Link.com,2014-01-09 01:59:00,
2014-01-08 21:14:00,26.2,18.1,30.31,East,90,0.0,-999.0,71,-99.99,,,0.00,Acu-Link.com,2014-01-09 02:14:00,
2014-01-08 21:29:00,26.8,18.7,30.32,SSW,202,0.0,-999.0,71,-99.99,,,0.00,Acu-Link.com,2014-01-09 02:29:00,
2014-01-08 21:44:00,26.8,18.3,30.32,North,0,0.0,-999.0,70,-99.99,,,0.00,Acu-Link.com,2014-01-09 02:44:00,
2014-01-08 21:59:00,26.2,18.1,30.31,North,0,0.0,-999.0,71,-99.99,,,0.00,Acu-Link.com,2014-01-09 02:59:00,
2014-01-08 22:14:00,26.2,18.4,30.32,WNW,292,0.0,-999.0,72,-99.99,,,0.00,Acu-Link.com,2014-01-09 03:14:00,
2014-01-08 22:29:00,26.4,18.9,30.31,SSW,202,0.0,-999.0,73,-99.99,,,0.00,Acu-Link.com,2014-01-09 03:29:00,
2014-01-08 22:44:00,26.6,19.1,30.31,East,90,0.0,-999.0,73,-99.99,,,0.00,Acu-Link.com,2014-01-09 03:44:00,
2014-01-08 23:00:00,26.6,19.5,30.31,ESE,112,0.0,-999.0,74,-99.99,,,0.00,Acu-Link.com,2014-01-09 04:00:00,
2014-01-08 23:15:00,26.4,19.3,30.31,NNW,337,0.0,-999.0,74,-99.99,,,0.00,Acu-Link.com,2014-01-09 04:15:00,
2014-01-08 23:30:00,26.4,19.3,30.31,WNW,292,0.0,-999.0,74,-99.99,,,0.00,Acu-Link.com,2014-01-09 04:30:00,
2014-01-08 23:45:00,26.6,19.8,30.32,West,270,0.0,-999.0,75,-99.99,,,0.00,Acu-Link.com,2014-01-09 04:45:00,